Terminal Aerodrome Forecast
Issued by NWS

Home | Current Version | Previous Version | Text Only | Print | Product List | Glossary On
Versions: 1 2 3 4 5 6 7 8 9 10 11 12 13 14 15 16 17 18 19 20 21 22 23 24 25 26 27 28 29 30 31 32 33 34 35 36 37 38 39 40
875
FTUS42 KGSP 262328
TAFHKY
TAF
KHKY 262328Z 2700/2724 18006KT P6SM SCT250
     FM271500 18006KT P6SM SCT060
     FM271700 20009KT P6SM BKN070 PROB30 2718/2722 4SM -TSRA
      OVC040CB=

USA.gov is the U.S. government's official web portal to all federal, state and local government web resources and services.